sensor_id;sensor_type;location;lat;lon;timestamp;temperature;humidity
28171;DHT22;15458;53.346;-1.688;2023-04-06T00:00:32;9.00;99.90
28171;DHT22;15458;53.346;-1.688;2023-04-06T00:02:58;9.00;99.90
28171;DHT22;15458;53.346;-1.688;2023-04-06T00:05:24;9.00;99.90
28171;DHT22;15458;53.346;-1.688;2023-04-06T00:07:49;8.90;99.90
28171;DHT22;15458;53.346;-1.688;2023-04-06T00:10:16;8.90;99.90
28171;DHT22;15458;53.346;-1.688;2023-04-06T00:12:44;8.90;99.90
28171;DHT22;15458;53.346;-1.688;2023-04-06T00:15:10;9.00;99.90
28171;DHT22;15458;53.346;-1.688;2023-04-06T00:17:36;9.00;99.90
28171;DHT22;15458;53.346;-1.688;2023-04-06T00:20:01;9.00;99.90
28171;DHT22;15458;53.346;-1.688;2023-04-06T00:22:27;9.00;99.90
28171;DHT22;15458;53.346;-1.688;2023-04-06T00:24:53;9.00;99.90
28171;DHT22;15458;53.346;-1.688;2023-04-06T00:27:18;9.00;99.90
28171;DHT22;15458;53.346;-1.688;2023-04-06T00:29:44;9.00;99.90
28171;DHT22;15458;53.346;-1.688;2023-04-06T00:32:10;9.00;99.90
28171;DHT22;15458;53.346;-1.688;2023-04-06T00:34:36;9.00;99.90
28171;DHT22;15458;53.346;-1.688;2023-04-06T00:37:01;9.00;99.90
28171;DHT22;15458;53.346;-1.688;2023-04-06T00:39:27;9.00;99.90
28171;DHT22;15458;53.346;-1.688;2023-04-06T00:41:53;9.00;99.90
28171;DHT22;15458;53.346;-1.688;2023-04-06T00:44:20;9.00;99.90
28171;DHT22;15458;53.346;-1.688;2023-04-06T00:46:46;9.00;99.90
28171;DHT22;15458;53.346;-1.688;2023-04-06T00:49:12;9.00;99.90
28171;DHT22;15458;53.346;-1.688;2023-04-06T00:51:38;9.00;99.90
28171;DHT22;15458;53.346;-1.688;2023-04-06T00:54:04;9.00;99.90
28171;DHT22;15458;53.346;-1.688;2023-04-06T00:56:29;9.00;99.90
28171;DHT22;15458;53.346;-1.688;2023-04-06T00:58:55;9.00;99.90
28171;DHT22;15458;53.346;-1.688;2023-04-06T01:01:21;9.00;99.90
28171;DHT22;15458;53.346;-1.688;2023-04-06T01:03:47;9.00;99.90
28171;DHT22;15458;53.346;-1.688;2023-04-06T01:06:15;9.00;99.90
28171;DHT22;15458;53.346;-1.688;2023-04-06T01:08:40;9.00;99.90
28171;DHT22;15458;53.346;-1.688;2023-04-06T01:11:06;9.00;99.90
28171;DHT22;15458;53.346;-1.688;2023-04-06T01:13:32;9.00;99.90
28171;DHT22;15458;53.346;-1.688;2023-04-06T01:15:58;9.00;99.90
28171;DHT22;15458;53.346;-1.688;2023-04-06T01:18:27;9.00;99.90
28171;DHT22;15458;53.346;-1.688;2023-04-06T01:20:53;9.00;99.90
28171;DHT22;15458;53.346;-1.688;2023-04-06T01:23:19;9.00;99.90
28171;DHT22;15458;53.346;-1.688;2023-04-06T01:25:45;9.00;99.90
28171;DHT22;15458;53.346;-1.688;2023-04-06T01:28:10;9.00;99.90
28171;DHT22;15458;53.346;-1.688;2023-04-06T01:30:36;9.00;99.90
28171;DHT22;15458;53.346;-1.688;2023-04-06T01:33:02;9.00;99.90
28171;DHT22;15458;53.346;-1.688;2023-04-06T01:35:28;9.10;99.90
28171;DHT22;15458;53.346;-1.688;2023-04-06T01:37:54;9.00;99.90
28171;DHT22;15458;53.346;-1.688;2023-04-06T01:40:19;9.10;99.90
28171;DHT22;15458;53.346;-1.688;2023-04-06T01:42:46;9.10;99.90
28171;DHT22;15458;53.346;-1.688;2023-04-06T01:45:11;9.10;99.90
28171;DHT22;15458;53.346;-1.688;2023-04-06T01:47:37;9.10;99.90
28171;DHT22;15458;53.346;-1.688;2023-04-06T01:50:03;9.10;99.90
28171;DHT22;15458;53.346;-1.688;2023-04-06T01:52:32;9.10;99.90
28171;DHT22;15458;53.346;-1.688;2023-04-06T01:54:58;9.10;99.90
28171;DHT22;15458;53.346;-1.688;2023-04-06T01:57:24;9.10;99.90
28171;DHT22;15458;53.346;-1.688;2023-04-06T01:59:51;9.10;99.90
28171;DHT22;15458;53.346;-1.688;2023-04-06T02:02:17;9.10;99.90
28171;DHT22;15458;53.346;-1.688;2023-04-06T02:04:42;9.10;99.90
28171;DHT22;15458;53.346;-1.688;2023-04-06T02:07:09;9.10;99.90
28171;DHT22;15458;53.346;-1.688;2023-04-06T02:09:35;9.10;99.90
28171;DHT22;15458;53.346;-1.688;2023-04-06T02:12:01;9.10;99.90
28171;DHT22;15458;53.346;-1.688;2023-04-06T02:14:27;9.10;99.90
28171;DHT22;15458;53.346;-1.688;2023-04-06T02:16:53;9.20;99.90
28171;DHT22;15458;53.346;-1.688;2023-04-06T02:19:18;9.10;99.90
28171;DHT22;15458;53.346;-1.688;2023-04-06T02:21:44;9.10;99.90
28171;DHT22;15458;53.346;-1.688;2023-04-06T02:24:10;9.10;99.90
28171;DHT22;15458;53.346;-1.688;2023-04-06T02:26:35;9.10;99.90
28171;DHT22;15458;53.346;-1.688;2023-04-06T02:29:01;9.20;99.90
28171;DHT22;15458;53.346;-1.688;2023-04-06T02:31:27;9.20;99.90
28171;DHT22;15458;53.346;-1.688;2023-04-06T02:33:53;9.20;99.90
28171;DHT22;15458;53.346;-1.688;2023-04-06T02:36:19;9.20;99.90
28171;DHT22;15458;53.346;-1.688;2023-04-06T02:38:45;9.20;99.90
28171;DHT22;15458;53.346;-1.688;2023-04-06T02:41:10;9.20;99.90
28171;DHT22;15458;53.346;-1.688;2023-04-06T02:43:36;9.20;99.90
28171;DHT22;15458;53.346;-1.688;2023-04-06T02:46:01;9.20;99.90
28171;DHT22;15458;53.346;-1.688;2023-04-06T02:48:27;9.20;99.90
28171;DHT22;15458;53.346;-1.688;2023-04-06T02:50:53;9.20;99.90
28171;DHT22;15458;53.346;-1.688;2023-04-06T02:53:18;9.20;99.90
28171;DHT22;15458;53.346;-1.688;2023-04-06T02:55:44;9.20;99.90
28171;DHT22;15458;53.346;-1.688;2023-04-06T02:58:10;9.20;99.90
28171;DHT22;15458;53.346;-1.688;2023-04-06T03:00:36;9.10;99.90
28171;DHT22;15458;53.346;-1.688;2023-04-06T03:03:02;9.10;99.90
28171;DHT22;15458;53.346;-1.688;2023-04-06T03:05:27;9.10;99.90
28171;DHT22;15458;53.346;-1.688;2023-04-06T03:07:53;9.10;99.90
28171;DHT22;15458;53.346;-1.688;2023-04-06T03:10:19;9.10;99.90
28171;DHT22;15458;53.346;-1.688;2023-04-06T03:12:44;9.10;99.90
28171;DHT22;15458;53.346;-1.688;2023-04-06T03:15:10;9.10;99.90
28171;DHT22;15458;53.346;-1.688;2023-04-06T03:17:36;9.10;99.90
28171;DHT22;15458;53.346;-1.688;2023-04-06T03:20:02;9.10;99.90
28171;DHT22;15458;53.346;-1.688;2023-04-06T03:22:29;9.10;99.90
28171;DHT22;15458;53.346;-1.688;2023-04-06T03:24:54;9.10;99.90
28171;DHT22;15458;53.346;-1.688;2023-04-06T03:27:20;9.10;99.90
28171;DHT22;15458;53.346;-1.688;2023-04-06T03:29:46;9.10;99.90
28171;DHT22;15458;53.346;-1.688;2023-04-06T03:32:11;9.10;99.90
28171;DHT22;15458;53.346;-1.688;2023-04-06T03:34:38;9.10;99.90
28171;DHT22;15458;53.346;-1.688;2023-04-06T03:37:04;9.10;99.90
28171;DHT22;15458;53.346;-1.688;2023-04-06T03:39:30;9.10;99.90
28171;DHT22;15458;53.346;-1.688;2023-04-06T03:41:56;9.10;99.90
28171;DHT22;15458;53.346;-1.688;2023-04-06T03:44:21;9.20;99.90
28171;DHT22;15458;53.346;-1.688;2023-04-06T03:46:47;9.20;99.90
28171;DHT22;15458;53.346;-1.688;2023-04-06T03:49:13;9.20;99.90
28171;DHT22;15458;53.346;-1.688;2023-04-06T03:51:38;9.20;99.90
28171;DHT22;15458;53.346;-1.688;2023-04-06T03:54:04;9.20;99.90
28171;DHT22;15458;53.346;-1.688;2023-04-06T03:56:30;9.30;99.90
28171;DHT22;15458;53.346;-1.688;2023-04-06T03:58:55;9.30;99.90
28171;DHT22;15458;53.346;-1.688;2023-04-06T04:01:21;9.30;99.90
28171;DHT22;15458;53.346;-1.688;2023-04-06T04:03:47;9.30;99.90
28171;DHT22;15458;53.346;-1.688;2023-04-06T04:06:13;9.30;99.90
28171;DHT22;15458;53.346;-1.688;2023-04-06T04:08:38;9.20;99.90
28171;DHT22;15458;53.346;-1.688;2023-04-06T04:11:04;9.30;99.90
28171;DHT22;15458;53.346;-1.688;2023-04-06T04:13:30;9.20;99.90
28171;DHT22;15458;53.346;-1.688;2023-04-06T04:15:55;9.30;99.90
28171;DHT22;15458;53.346;-1.688;2023-04-06T04:18:21;9.20;99.90
28171;DHT22;15458;53.346;-1.688;2023-04-06T04:20:47;9.20;99.90
28171;DHT22;15458;53.346;-1.688;2023-04-06T04:23:12;9.30;99.90
28171;DHT22;15458;53.346;-1.688;2023-04-06T04:25:38;9.30;99.90
28171;DHT22;15458;53.346;-1.688;2023-04-06T04:28:04;9.30;99.90
28171;DHT22;15458;53.346;-1.688;2023-04-06T04:30:29;9.30;99.90
28171;DHT22;15458;53.346;-1.688;2023-04-06T04:32:55;9.30;99.90
28171;DHT22;15458;53.346;-1.688;2023-04-06T04:35:21;9.20;99.90
28171;DHT22;15458;53.346;-1.688;2023-04-06T04:37:47;9.30;99.90
28171;DHT22;15458;53.346;-1.688;2023-04-06T04:40:12;9.30;99.90
28171;DHT22;15458;53.346;-1.688;2023-04-06T04:42:39;9.30;99.90
28171;DHT22;15458;53.346;-1.688;2023-04-06T04:45:05;9.30;99.90
28171;DHT22;15458;53.346;-1.688;2023-04-06T04:47:30;9.40;99.90
28171;DHT22;15458;53.346;-1.688;2023-04-06T04:49:56;9.40;99.90
28171;DHT22;15458;53.346;-1.688;2023-04-06T04:52:22;9.40;99.90
28171;DHT22;15458;53.346;-1.688;2023-04-06T04:54:47;9.40;99.90
28171;DHT22;15458;53.346;-1.688;2023-04-06T04:57:13;9.40;99.90
28171;DHT22;15458;53.346;-1.688;2023-04-06T04:59:39;9.40;99.90
28171;DHT22;15458;53.346;-1.688;2023-04-06T05:02:04;9.30;99.90
28171;DHT22;15458;53.346;-1.688;2023-04-06T05:04:30;9.30;99.90
28171;DHT22;15458;53.346;-1.688;2023-04-06T05:07:06;9.30;99.90
28171;DHT22;15458;53.346;-1.688;2023-04-06T05:09:32;9.30;99.90
28171;DHT22;15458;53.346;-1.688;2023-04-06T05:11:58;9.30;99.90
28171;DHT22;15458;53.346;-1.688;2023-04-06T05:14:25;9.30;99.90
28171;DHT22;15458;53.346;-1.688;2023-04-06T05:16:51;9.30;99.90
28171;DHT22;15458;53.346;-1.688;2023-04-06T05:19:16;9.30;99.90
28171;DHT22;15458;53.346;-1.688;2023-04-06T05:21:42;9.30;99.90
28171;DHT22;15458;53.346;-1.688;2023-04-06T05:24:07;9.30;99.90
28171;DHT22;15458;53.346;-1.688;2023-04-06T05:26:35;9.30;99.90
28171;DHT22;15458;53.346;-1.688;2023-04-06T05:29:00;9.30;99.90
28171;DHT22;15458;53.346;-1.688;2023-04-06T05:31:26;9.30;99.90
28171;DHT22;15458;53.346;-1.688;2023-04-06T05:33:52;9.30;99.90
28171;DHT22;15458;53.346;-1.688;2023-04-06T05:36:21;9.30;99.90
28171;DHT22;15458;53.346;-1.688;2023-04-06T05:38:46;9.30;99.90
28171;DHT22;15458;53.346;-1.688;2023-04-06T05:41:12;9.30;99.90
28171;DHT22;15458;53.346;-1.688;2023-04-06T05:43:38;9.30;99.90
28171;DHT22;15458;53.346;-1.688;2023-04-06T05:46:03;9.30;99.90
28171;DHT22;15458;53.346;-1.688;2023-04-06T05:48:29;9.30;99.90
28171;DHT22;15458;53.346;-1.688;2023-04-06T05:50:55;9.30;99.90
28171;DHT22;15458;53.346;-1.688;2023-04-06T05:53:21;9.30;99.90
28171;DHT22;15458;53.346;-1.688;2023-04-06T05:55:47;9.30;99.90
28171;DHT22;15458;53.346;-1.688;2023-04-06T05:58:13;9.30;99.90
28171;DHT22;15458;53.346;-1.688;2023-04-06T06:00:38;9.30;99.90
28171;DHT22;15458;53.346;-1.688;2023-04-06T06:03:04;9.30;99.90
28171;DHT22;15458;53.346;-1.688;2023-04-06T06:05:31;9.30;99.90
28171;DHT22;15458;53.346;-1.688;2023-04-06T06:07:57;9.30;99.90
28171;DHT22;15458;53.346;-1.688;2023-04-06T06:10:22;9.30;99.90
28171;DHT22;15458;53.346;-1.688;2023-04-06T06:12:48;9.30;99.90
28171;DHT22;15458;53.346;-1.688;2023-04-06T06:15:14;9.30;99.90
28171;DHT22;15458;53.346;-1.688;2023-04-06T06:17:39;9.30;99.90
28171;DHT22;15458;53.346;-1.688;2023-04-06T06:20:07;9.30;99.90
28171;DHT22;15458;53.346;-1.688;2023-04-06T06:22:32;9.30;99.90
28171;DHT22;15458;53.346;-1.688;2023-04-06T06:24:58;9.30;99.90
28171;DHT22;15458;53.346;-1.688;2023-04-06T06:27:24;9.40;99.90
28171;DHT22;15458;53.346;-1.688;2023-04-06T06:29:50;9.30;99.90
28171;DHT22;15458;53.346;-1.688;2023-04-06T06:32:17;9.40;99.90
28171;DHT22;15458;53.346;-1.688;2023-04-06T06:34:43;9.40;99.90
28171;DHT22;15458;53.346;-1.688;2023-04-06T06:37:08;9.40;99.90
28171;DHT22;15458;53.346;-1.688;2023-04-06T06:39:34;9.40;99.90
28171;DHT22;15458;53.346;-1.688;2023-04-06T06:42:00;9.40;99.90
28171;DHT22;15458;53.346;-1.688;2023-04-06T06:44:27;9.40;99.90
28171;DHT22;15458;53.346;-1.688;2023-04-06T06:46:53;9.40;99.90
28171;DHT22;15458;53.346;-1.688;2023-04-06T06:49:19;9.40;99.90
28171;DHT22;15458;53.346;-1.688;2023-04-06T06:51:45;9.50;99.90
28171;DHT22;15458;53.346;-1.688;2023-04-06T06:54:12;9.50;99.90
28171;DHT22;15458;53.346;-1.688;2023-04-06T06:56:39;9.50;99.90
28171;DHT22;15458;53.346;-1.688;2023-04-06T06:59:05;9.40;99.90
28171;DHT22;15458;53.346;-1.688;2023-04-06T07:01:36;9.50;99.90
28171;DHT22;15458;53.346;-1.688;2023-04-06T07:04:02;9.40;99.90
28171;DHT22;15458;53.346;-1.688;2023-04-06T07:06:27;9.40;99.90
28171;DHT22;15458;53.346;-1.688;2023-04-06T07:08:53;9.40;99.90
28171;DHT22;15458;53.346;-1.688;2023-04-06T07:11:19;9.30;99.90
28171;DHT22;15458;53.346;-1.688;2023-04-06T07:13:44;9.40;99.90
28171;DHT22;15458;53.346;-1.688;2023-04-06T07:16:10;9.30;99.90
28171;DHT22;15458;53.346;-1.688;2023-04-06T07:18:36;9.40;99.90
28171;DHT22;15458;53.346;-1.688;2023-04-06T07:21:01;9.30;99.90
28171;DHT22;15458;53.346;-1.688;2023-04-06T07:23:27;9.30;99.90
28171;DHT22;15458;53.346;-1.688;2023-04-06T07:25:52;9.30;99.90
28171;DHT22;15458;53.346;-1.688;2023-04-06T07:28:19;9.20;99.90
28171;DHT22;15458;53.346;-1.688;2023-04-06T07:30:45;9.20;99.90
28171;DHT22;15458;53.346;-1.688;2023-04-06T07:33:11;9.20;99.90
28171;DHT22;15458;53.346;-1.688;2023-04-06T07:35:37;9.10;99.90
28171;DHT22;15458;53.346;-1.688;2023-04-06T07:38:03;9.10;99.90
28171;DHT22;15458;53.346;-1.688;2023-04-06T07:40:29;9.00;99.90
28171;DHT22;15458;53.346;-1.688;2023-04-06T07:42:57;9.00;99.90
28171;DHT22;15458;53.346;-1.688;2023-04-06T07:45:22;9.00;99.90
28171;DHT22;15458;53.346;-1.688;2023-04-06T07:47:48;9.00;99.90
28171;DHT22;15458;53.346;-1.688;2023-04-06T07:50:15;9.00;99.90
28171;DHT22;15458;53.346;-1.688;2023-04-06T07:52:41;9.00;99.90
28171;DHT22;15458;53.346;-1.688;2023-04-06T07:55:07;9.00;99.90
28171;DHT22;15458;53.346;-1.688;2023-04-06T07:57:33;9.10;99.90
28171;DHT22;15458;53.346;-1.688;2023-04-06T07:59:58;9.10;99.90
28171;DHT22;15458;53.346;-1.688;2023-04-06T08:02:24;9.10;99.90
28171;DHT22;15458;53.346;-1.688;2023-04-06T08:04:49;9.20;99.90
28171;DHT22;15458;53.346;-1.688;2023-04-06T08:07:15;9.20;99.90
28171;DHT22;15458;53.346;-1.688;2023-04-06T08:09:41;9.30;99.90
28171;DHT22;15458;53.346;-1.688;2023-04-06T08:12:06;9.30;99.90
28171;DHT22;15458;53.346;-1.688;2023-04-06T08:14:32;9.30;99.90
28171;DHT22;15458;53.346;-1.688;2023-04-06T08:16:58;9.40;99.90
28171;DHT22;15458;53.346;-1.688;2023-04-06T08:19:23;9.40;99.90
28171;DHT22;15458;53.346;-1.688;2023-04-06T08:21:49;9.40;99.90
28171;DHT22;15458;53.346;-1.688;2023-04-06T08:24:15;9.40;99.90
28171;DHT22;15458;53.346;-1.688;2023-04-06T08:26:40;9.40;99.90
28171;DHT22;15458;53.346;-1.688;2023-04-06T08:29:06;9.40;99.90
28171;DHT22;15458;53.346;-1.688;2023-04-06T08:31:35;9.40;99.90
28171;DHT22;15458;53.346;-1.688;2023-04-06T08:34:02;9.40;99.90
28171;DHT22;15458;53.346;-1.688;2023-04-06T08:36:31;9.40;99.90
28171;DHT22;15458;53.346;-1.688;2023-04-06T08:38:57;9.40;99.90
28171;DHT22;15458;53.346;-1.688;2023-04-06T08:41:22;9.50;99.90
28171;DHT22;15458;53.346;-1.688;2023-04-06T08:43:50;9.50;99.90
28171;DHT22;15458;53.346;-1.688;2023-04-06T08:46:18;9.60;99.90
28171;DHT22;15458;53.346;-1.688;2023-04-06T08:48:45;9.60;99.90
28171;DHT22;15458;53.346;-1.688;2023-04-06T08:51:14;9.70;99.90
28171;DHT22;15458;53.346;-1.688;2023-04-06T08:53:41;9.70;99.90
28171;DHT22;15458;53.346;-1.688;2023-04-06T08:56:07;9.80;99.90
28171;DHT22;15458;53.346;-1.688;2023-04-06T08:58:39;9.80;99.90
28171;DHT22;15458;53.346;-1.688;2023-04-06T09:01:12;9.90;99.90
28171;DHT22;15458;53.346;-1.688;2023-04-06T09:03:39;9.90;99.90
28171;DHT22;15458;53.346;-1.688;2023-04-06T09:06:06;9.90;99.90
28171;DHT22;15458;53.346;-1.688;2023-04-06T09:08:33;9.90;99.90
28171;DHT22;15458;53.346;-1.688;2023-04-06T09:11:03;9.90;99.90
28171;DHT22;15458;53.346;-1.688;2023-04-06T09:13:29;9.90;99.90
28171;DHT22;15458;53.346;-1.688;2023-04-06T09:16:05;9.90;99.90
28171;DHT22;15458;53.346;-1.688;2023-04-06T09:18:34;10.00;99.90
28171;DHT22;15458;53.346;-1.688;2023-04-06T09:21:05;10.10;99.90
28171;DHT22;15458;53.346;-1.688;2023-04-06T09:23:31;10.20;99.90
28171;DHT22;15458;53.346;-1.688;2023-04-06T09:26:11;10.20;99.90
28171;DHT22;15458;53.346;-1.688;2023-04-06T09:28:51;10.20;99.90
28171;DHT22;15458;53.346;-1.688;2023-04-06T09:31:27;10.40;99.90
28171;DHT22;15458;53.346;-1.688;2023-04-06T09:33:54;10.60;99.90
28171;DHT22;15458;53.346;-1.688;2023-04-06T09:36:28;10.80;99.90
28171;DHT22;15458;53.346;-1.688;2023-04-06T09:39:00;11.00;99.90
28171;DHT22;15458;53.346;-1.688;2023-04-06T09:44:04;11.30;99.90
28171;DHT22;15458;53.346;-1.688;2023-04-06T09:46:32;11.40;99.90
28171;DHT22;15458;53.346;-1.688;2023-04-06T09:49:02;11.50;99.90
28171;DHT22;15458;53.346;-1.688;2023-04-06T09:51:39;11.60;99.90
28171;DHT22;15458;53.346;-1.688;2023-04-06T09:54:06;11.80;99.90
28171;DHT22;15458;53.346;-1.688;2023-04-06T09:56:39;11.90;99.90
28171;DHT22;15458;53.346;-1.688;2023-04-06T09:59:10;12.00;99.90
28171;DHT22;15458;53.346;-1.688;2023-04-06T10:01:39;12.00;99.90
28171;DHT22;15458;53.346;-1.688;2023-04-06T10:04:20;12.00;99.90
28171;DHT22;15458;53.346;-1.688;2023-04-06T10:06:47;12.00;99.90
28171;DHT22;15458;53.346;-1.688;2023-04-06T10:09:18;12.10;99.90
28171;DHT22;15458;53.346;-1.688;2023-04-06T10:11:48;12.20;99.90
28171;DHT22;15458;53.346;-1.688;2023-04-06T10:14:15;12.20;99.90
28171;DHT22;15458;53.346;-1.688;2023-04-06T10:16:42;12.20;99.90
28171;DHT22;15458;53.346;-1.688;2023-04-06T10:19:15;12.10;99.90
28171;DHT22;15458;53.346;-1.688;2023-04-06T10:21:44;12.20;99.90
28171;DHT22;15458;53.346;-1.688;2023-04-06T10:24:12;12.30;99.90
28171;DHT22;15458;53.346;-1.688;2023-04-06T10:26:39;12.30;99.90
28171;DHT22;15458;53.346;-1.688;2023-04-06T10:29:05;12.40;99.90
28171;DHT22;15458;53.346;-1.688;2023-04-06T10:31:31;12.60;99.90
28171;DHT22;15458;53.346;-1.688;2023-04-06T10:34:02;12.80;99.90
28171;DHT22;15458;53.346;-1.688;2023-04-06T10:36:32;12.90;99.90
28171;DHT22;15458;53.346;-1.688;2023-04-06T10:39:00;12.80;99.70
28171;DHT22;15458;53.346;-1.688;2023-04-06T10:41:35;12.80;99.20
28171;DHT22;15458;53.346;-1.688;2023-04-06T10:44:02;12.90;99.20
28171;DHT22;15458;53.346;-1.688;2023-04-06T10:46:29;13.10;98.80
28171;DHT22;15458;53.346;-1.688;2023-04-06T10:48:55;13.30;98.30
28171;DHT22;15458;53.346;-1.688;2023-04-06T10:51:26;13.40;96.90
28171;DHT22;15458;53.346;-1.688;2023-04-06T10:53:55;13.40;95.40
28171;DHT22;15458;53.346;-1.688;2023-04-06T10:56:23;13.50;95.20
28171;DHT22;15458;53.346;-1.688;2023-04-06T10:58:54;13.70;95.20
28171;DHT22;15458;53.346;-1.688;2023-04-06T11:01:24;13.80;95.10
28171;DHT22;15458;53.346;-1.688;2023-04-06T11:03:57;13.70;94.40
28171;DHT22;15458;53.346;-1.688;2023-04-06T11:06:27;13.40;93.60
28171;DHT22;15458;53.346;-1.688;2023-04-06T11:08:55;13.40;93.80
28171;DHT22;15458;53.346;-1.688;2023-04-06T11:11:23;13.30;93.50
28171;DHT22;15458;53.346;-1.688;2023-04-06T11:16:28;13.10;93.40
28171;DHT22;15458;53.346;-1.688;2023-04-06T11:18:57;13.00;93.10
28171;DHT22;15458;53.346;-1.688;2023-04-06T11:24:13;13.50;93.80
28171;DHT22;15458;53.346;-1.688;2023-04-06T11:26:49;14.00;92.90
28171;DHT22;15458;53.346;-1.688;2023-04-06T11:29:25;14.30;92.10
28171;DHT22;15458;53.346;-1.688;2023-04-06T11:31:59;14.60;91.00
28171;DHT22;15458;53.346;-1.688;2023-04-06T11:34:25;14.80;90.20
28171;DHT22;15458;53.346;-1.688;2023-04-06T11:36:58;14.70;88.50
28171;DHT22;15458;53.346;-1.688;2023-04-06T11:39:24;14.50;86.60
28171;DHT22;15458;53.346;-1.688;2023-04-06T11:41:51;14.30;87.00
28171;DHT22;15458;53.346;-1.688;2023-04-06T11:44:35;14.30;87.70
28171;DHT22;15458;53.346;-1.688;2023-04-06T11:47:02;14.30;87.80
28171;DHT22;15458;53.346;-1.688;2023-04-06T11:49:29;14.40;88.40
28171;DHT22;15458;53.346;-1.688;2023-04-06T11:51:55;14.60;87.70
28171;DHT22;15458;53.346;-1.688;2023-04-06T11:54:37;14.70;85.40
28171;DHT22;15458;53.346;-1.688;2023-04-06T11:57:04;14.70;85.60
28171;DHT22;15458;53.346;-1.688;2023-04-06T11:59:33;14.70;85.80
28171;DHT22;15458;53.346;-1.688;2023-04-06T12:02:00;14.90;86.80
28171;DHT22;15458;53.346;-1.688;2023-04-06T12:04:26;15.20;87.00
28171;DHT22;15458;53.346;-1.688;2023-04-06T12:06:52;15.40;86.30
28171;DHT22;15458;53.346;-1.688;2023-04-06T12:09:18;15.60;85.20
28171;DHT22;15458;53.346;-1.688;2023-04-06T12:11:58;15.80;84.80
28171;DHT22;15458;53.346;-1.688;2023-04-06T12:14:36;16.00;83.60
28171;DHT22;15458;53.346;-1.688;2023-04-06T12:17:02;16.00;82.60
28171;DHT22;15458;53.346;-1.688;2023-04-06T12:19:28;15.80;82.00
28171;DHT22;15458;53.346;-1.688;2023-04-06T12:21:54;15.80;82.60
28171;DHT22;15458;53.346;-1.688;2023-04-06T12:24:20;15.80;81.80
28171;DHT22;15458;53.346;-1.688;2023-04-06T12:26:46;15.70;81.50
28171;DHT22;15458;53.346;-1.688;2023-04-06T12:29:14;15.60;82.20
28171;DHT22;15458;53.346;-1.688;2023-04-06T12:31:40;15.50;82.20
28171;DHT22;15458;53.346;-1.688;2023-04-06T12:34:10;15.30;81.80
28171;DHT22;15458;53.346;-1.688;2023-04-06T12:36:37;15.20;81.70
28171;DHT22;15458;53.346;-1.688;2023-04-06T12:39:05;15.30;82.50
28171;DHT22;15458;53.346;-1.688;2023-04-06T12:41:31;15.50;82.20
28171;DHT22;15458;53.346;-1.688;2023-04-06T12:43:57;15.50;81.70
28171;DHT22;15458;53.346;-1.688;2023-04-06T12:46:27;15.40;81.70
28171;DHT22;15458;53.346;-1.688;2023-04-06T12:48:56;15.20;81.60
28171;DHT22;15458;53.346;-1.688;2023-04-06T12:51:23;15.00;82.10
28171;DHT22;15458;53.346;-1.688;2023-04-06T12:53:49;14.90;82.90
28171;DHT22;15458;53.346;-1.688;2023-04-06T12:56:17;14.90;83.40
28171;DHT22;15458;53.346;-1.688;2023-04-06T12:58:46;14.90;83.40
28171;DHT22;15458;53.346;-1.688;2023-04-06T13:01:12;15.00;82.70
28171;DHT22;15458;53.346;-1.688;2023-04-06T13:03:43;15.10;82.00
28171;DHT22;15458;53.346;-1.688;2023-04-06T13:06:10;15.40;81.60
28171;DHT22;15458;53.346;-1.688;2023-04-06T13:08:36;15.50;80.60
28171;DHT22;15458;53.346;-1.688;2023-04-06T13:11:03;15.50;79.10
28171;DHT22;15458;53.346;-1.688;2023-04-06T13:13:30;15.20;77.70
28171;DHT22;15458;53.346;-1.688;2023-04-06T13:16:00;15.20;78.80
28171;DHT22;15458;53.346;-1.688;2023-04-06T13:18:28;15.60;79.30
28171;DHT22;15458;53.346;-1.688;2023-04-06T13:20:58;15.90;79.10
28171;DHT22;15458;53.346;-1.688;2023-04-06T13:23:25;16.00;78.60
28171;DHT22;15458;53.346;-1.688;2023-04-06T13:26:05;16.00;78.00
28171;DHT22;15458;53.346;-1.688;2023-04-06T13:28:32;15.80;78.30
28171;DHT22;15458;53.346;-1.688;2023-04-06T13:31:01;15.50;78.00
28171;DHT22;15458;53.346;-1.688;2023-04-06T13:33:28;15.20;77.60
28171;DHT22;15458;53.346;-1.688;2023-04-06T13:35:54;14.90;77.90
28171;DHT22;15458;53.346;-1.688;2023-04-06T13:38:20;15.00;78.80
28171;DHT22;15458;53.346;-1.688;2023-04-06T13:40:48;15.30;78.60
28171;DHT22;15458;53.346;-1.688;2023-04-06T13:43:15;15.70;78.00
28171;DHT22;15458;53.346;-1.688;2023-04-06T13:45:41;15.90;77.20
28171;DHT22;15458;53.346;-1.688;2023-04-06T13:48:06;15.70;76.90
28171;DHT22;15458;53.346;-1.688;2023-04-06T13:50:33;15.40;77.60
28171;DHT22;15458;53.346;-1.688;2023-04-06T13:52:59;14.90;79.40
28171;DHT22;15458;53.346;-1.688;2023-04-06T13:55:24;14.50;80.90
28171;DHT22;15458;53.346;-1.688;2023-04-06T13:57:50;14.50;82.10
28171;DHT22;15458;53.346;-1.688;2023-04-06T14:00:17;14.90;82.50
28171;DHT22;15458;53.346;-1.688;2023-04-06T14:02:43;15.20;81.10
28171;DHT22;15458;53.346;-1.688;2023-04-06T14:05:12;15.20;80.40
28171;DHT22;15458;53.346;-1.688;2023-04-06T14:07:38;15.20;80.10
28171;DHT22;15458;53.346;-1.688;2023-04-06T14:10:04;15.10;78.90
28171;DHT22;15458;53.346;-1.688;2023-04-06T14:12:35;14.90;79.30
28171;DHT22;15458;53.346;-1.688;2023-04-06T14:15:01;14.70;79.00
28171;DHT22;15458;53.346;-1.688;2023-04-06T14:17:27;14.50;79.30
28171;DHT22;15458;53.346;-1.688;2023-04-06T14:19:53;14.40;79.30
28171;DHT22;15458;53.346;-1.688;2023-04-06T14:22:19;14.60;79.80
28171;DHT22;15458;53.346;-1.688;2023-04-06T14:24:45;14.90;79.70
28171;DHT22;15458;53.346;-1.688;2023-04-06T14:27:12;15.10;78.50
28171;DHT22;15458;53.346;-1.688;2023-04-06T14:29:38;15.20;77.90
28171;DHT22;15458;53.346;-1.688;2023-04-06T14:32:03;15.30;77.80
28171;DHT22;15458;53.346;-1.688;2023-04-06T14:34:29;15.60;77.60
28171;DHT22;15458;53.346;-1.688;2023-04-06T14:36:55;15.80;75.80
28171;DHT22;15458;53.346;-1.688;2023-04-06T14:39:21;15.80;74.40
28171;DHT22;15458;53.346;-1.688;2023-04-06T14:41:47;15.70;73.70
28171;DHT22;15458;53.346;-1.688;2023-04-06T14:44:16;15.60;73.80
28171;DHT22;15458;53.346;-1.688;2023-04-06T14:46:42;15.40;73.60
28171;DHT22;15458;53.346;-1.688;2023-04-06T14:49:08;15.10;73.30
28171;DHT22;15458;53.346;-1.688;2023-04-06T14:51:36;14.80;74.20
28171;DHT22;15458;53.346;-1.688;2023-04-06T14:54:02;14.50;74.70
28171;DHT22;15458;53.346;-1.688;2023-04-06T14:56:31;14.30;75.30
28171;DHT22;15458;53.346;-1.688;2023-04-06T14:58:58;14.20;76.10
28171;DHT22;15458;53.346;-1.688;2023-04-06T15:01:24;14.10;76.50
28171;DHT22;15458;53.346;-1.688;2023-04-06T15:03:50;14.00;76.50
28171;DHT22;15458;53.346;-1.688;2023-04-06T15:06:17;13.80;76.80
28171;DHT22;15458;53.346;-1.688;2023-04-06T15:08:46;13.70;77.40
28171;DHT22;15458;53.346;-1.688;2023-04-06T15:11:13;13.70;77.80
28171;DHT22;15458;53.346;-1.688;2023-04-06T15:13:40;13.60;77.40
28171;DHT22;15458;53.346;-1.688;2023-04-06T15:16:06;13.50;77.40
28171;DHT22;15458;53.346;-1.688;2023-04-06T15:18:33;13.50;77.80
28171;DHT22;15458;53.346;-1.688;2023-04-06T15:21:02;13.60;77.70
28171;DHT22;15458;53.346;-1.688;2023-04-06T15:23:34;13.60;77.20
28171;DHT22;15458;53.346;-1.688;2023-04-06T15:26:02;13.60;77.20
28171;DHT22;15458;53.346;-1.688;2023-04-06T15:28:35;13.50;77.40
28171;DHT22;15458;53.346;-1.688;2023-04-06T15:31:01;13.50;77.20